createdAt,value
2023-05-14T00:00:47.355Z,100713.25
2023-05-14T00:03:14.133Z,100715.09
2023-05-14T00:05:40.888Z,100702.66
2023-05-14T00:08:07.626Z,100692.09
2023-05-14T00:10:34.218Z,100693.47
2023-05-14T00:13:01.188Z,100694.88
2023-05-14T00:15:27.788Z,100690.56
2023-05-14T00:17:54.339Z,100678.97
2023-05-14T00:20:21.320Z,100675.50
2023-05-14T00:22:47.949Z,100656.97
2023-05-14T00:25:14.538Z,100652.69
2023-05-14T00:27:41.163Z,100654.28
2023-05-14T00:30:08.235Z,100640.81
2023-05-14T00:32:35.115Z,100647.16
2023-05-14T00:35:03.197Z,100628.19
2023-05-14T00:37:30.115Z,100618.78
2023-05-14T00:39:56.677Z,100610.47
2023-05-14T00:42:23.200Z,100610.28
2023-05-14T00:44:49.988Z,100588.84
2023-05-14T00:47:16.826Z,100586.25
2023-05-14T00:49:43.789Z,100570.66
2023-05-14T00:52:11.669Z,100544.88
2023-05-14T00:54:38.449Z,100518.00
2023-05-14T00:57:06.675Z,100505.59
2023-05-14T00:59:33.680Z,100497.22
2023-05-14T01:02:00.551Z,100504.16
2023-05-14T01:04:27.556Z,100500.44
2023-05-14T01:07:00.226Z,100499.38
2023-05-14T01:09:49.765Z,100496.50
2023-05-14T01:12:40.646Z,100487.34
2023-05-14T01:15:11.172Z,100486.13
2023-05-14T01:17:46.309Z,100474.72
2023-05-14T01:20:13.446Z,100463.31
2023-05-14T01:22:40.003Z,100459.63
2023-05-14T01:25:07.312Z,100458.34
2023-05-14T01:27:55.267Z,100459.00
2023-05-14T01:30:45.515Z,100449.59
2023-05-14T01:33:14.591Z,100447.13
2023-05-14T01:35:41.708Z,100441.41
2023-05-14T01:38:11.670Z,100443.38
2023-05-14T01:40:39.368Z,100447.22
2023-05-14T01:43:06.442Z,100439.44
2023-05-14T01:45:35.981Z,100439.41
2023-05-14T01:48:02.666Z,100437.78
2023-05-14T01:50:29.315Z,100437.75
2023-05-14T01:52:56.580Z,100446.63
2023-05-14T01:55:24.498Z,100445.81
2023-05-14T01:57:51.996Z,100442.38
2023-05-14T02:00:19.052Z,100432.41
2023-05-14T02:02:45.782Z,100427.94
2023-05-14T02:05:13.105Z,100438.66
2023-05-14T02:07:39.684Z,100431.16
2023-05-14T02:10:07.113Z,100418.81
2023-05-14T02:12:33.765Z,100404.41
2023-05-14T02:15:00.349Z,100390.97
2023-05-14T02:17:27.080Z,100383.69
2023-05-14T02:19:53.593Z,100370.53
2023-05-14T02:22:20.128Z,100344.41
2023-05-14T02:24:46.854Z,100328.97
2023-05-14T02:27:13.477Z,100326.69
2023-05-14T02:29:40.006Z,100317.13
2023-05-14T02:32:06.872Z,100322.38
2023-05-14T02:34:34.697Z,100313.00
2023-05-14T02:37:01.286Z,100308.50
2023-05-14T02:39:27.805Z,100297.72
2023-05-14T02:41:54.443Z,100291.81
2023-05-14T02:44:21.116Z,100287.09
2023-05-14T02:46:48.250Z,100283.00
2023-05-14T02:49:14.753Z,100288.22
2023-05-14T02:51:41.277Z,100280.47
2023-05-14T02:54:07.766Z,100273.69
2023-05-14T02:56:34.281Z,100296.03
2023-05-14T02:59:00.991Z,100298.59
2023-05-14T03:01:28.010Z,100297.97
2023-05-14T03:03:55.440Z,100300.97
2023-05-14T03:06:22.097Z,100303.97
2023-05-14T03:08:48.624Z,100308.22
2023-05-14T03:11:15.221Z,100303.13
2023-05-14T03:13:41.747Z,100306.81
2023-05-14T03:16:08.289Z,100295.25
2023-05-14T03:18:36.668Z,100284.88
2023-05-14T03:21:04.024Z,100277.19
2023-05-14T03:23:32.074Z,100263.59
2023-05-14T03:25:58.899Z,100245.91
2023-05-14T03:28:26.056Z,100236.34
2023-05-14T03:30:52.910Z,100231.06
2023-05-14T03:33:19.669Z,100230.00
2023-05-14T03:35:46.211Z,100218.84
2023-05-14T03:38:12.689Z,100211.91
2023-05-14T03:40:39.139Z,100200.09
2023-05-14T03:43:05.956Z,100201.91
2023-05-14T03:45:33.466Z,100201.47
2023-05-14T03:48:00.040Z,100202.50
2023-05-14T03:50:26.719Z,100204.06
2023-05-14T03:52:53.552Z,100206.88
2023-05-14T03:55:20.474Z,100195.88
2023-05-14T03:57:48.527Z,100193.22
2023-05-14T04:00:15.649Z,100186.72
2023-05-14T04:02:42.880Z,100188.59
2023-05-14T04:05:09.691Z,100185.31
2023-05-14T04:07:36.373Z,100182.03
2023-05-14T04:10:04.706Z,100179.88
2023-05-14T04:12:31.507Z,100151.34
2023-05-14T04:14:58.629Z,100124.84
2023-05-14T04:17:25.779Z,100107.97
2023-05-14T04:19:52.384Z,100081.13
2023-05-14T04:22:18.987Z,100067.91
2023-05-14T04:24:46.118Z,100050.84
2023-05-14T04:27:21.410Z,100041.31
2023-05-14T04:29:49.055Z,100037.22
2023-05-14T04:32:15.867Z,100039.66
2023-05-14T04:34:42.448Z,100032.34
2023-05-14T04:37:09.047Z,100025.66
2023-05-14T04:39:35.953Z,100019.94
2023-05-14T04:42:02.689Z,100007.34
2023-05-14T04:44:29.359Z,99990.00
2023-05-14T04:46:55.873Z,99969.63
2023-05-14T04:49:22.364Z,99936.63
2023-05-14T04:51:49.437Z,99923.06
2023-05-14T04:54:15.976Z,99894.44
2023-05-14T04:56:42.667Z,99880.88
2023-05-14T04:59:09.322Z,99865.47
2023-05-14T05:01:36.316Z,99854.19
2023-05-14T05:04:04.304Z,99854.34
2023-05-14T05:06:31.737Z,99855.28
2023-05-14T05:08:59.531Z,99841.97
2023-05-14T05:11:27.172Z,99836.84
2023-05-14T05:13:53.853Z,99833.09
2023-05-14T05:16:20.405Z,99831.03
2023-05-14T05:18:47.243Z,99833.63
2023-05-14T05:21:13.733Z,99831.97
2023-05-14T05:23:40.318Z,99841.59
2023-05-14T05:26:07.005Z,99839.94
2023-05-14T05:28:33.517Z,99850.13
2023-05-14T05:31:00.198Z,99860.53
2023-05-14T05:33:26.855Z,99878.72
2023-05-14T05:35:53.346Z,99887.44
2023-05-14T05:38:19.882Z,99904.94
2023-05-14T05:40:46.454Z,99915.94
2023-05-14T05:43:13.938Z,99939.13
2023-05-14T05:45:40.859Z,99948.72
2023-05-14T05:48:07.414Z,99975.66
2023-05-14T05:50:33.947Z,99998.75
2023-05-14T05:53:00.544Z,100015.06
2023-05-14T05:55:27.254Z,100050.31
2023-05-14T05:57:53.937Z,100059.94
2023-05-14T06:00:20.995Z,100083.19
2023-05-14T06:02:47.827Z,100100.72
2023-05-14T06:05:14.513Z,100128.69
2023-05-14T06:07:41.236Z,100156.78
2023-05-14T06:10:08.268Z,100168.00
2023-05-14T06:12:34.808Z,100188.00
2023-05-14T06:15:01.364Z,100205.06
2023-05-14T06:17:27.922Z,100228.69
2023-05-14T06:19:54.638Z,100244.13
2023-05-14T06:22:21.261Z,100274.63
2023-05-14T06:24:48.081Z,100295.66
2023-05-14T06:27:14.924Z,100326.09
2023-05-14T06:29:41.491Z,100355.75
2023-05-14T06:32:08.551Z,100375.94
2023-05-14T06:34:35.129Z,100405.38
2023-05-14T06:37:04.186Z,100436.66
2023-05-14T06:39:30.867Z,100462.63
2023-05-14T06:41:57.521Z,100487.78
2023-05-14T06:44:24.024Z,100500.00
2023-05-14T06:46:50.598Z,100521.84
2023-05-14T06:49:17.201Z,100552.75
2023-05-14T06:51:43.769Z,100576.66
2023-05-14T06:54:10.318Z,100600.75
2023-05-14T06:56:36.973Z,100617.91
2023-05-14T06:59:03.533Z,100626.88
2023-05-14T07:01:30.591Z,100639.13
2023-05-14T07:03:57.463Z,100651.16
2023-05-14T07:06:24.190Z,100671.59
2023-05-14T07:08:51.055Z,100693.66
2023-05-14T07:11:17.660Z,100727.59
2023-05-14T07:13:44.372Z,100750.91
2023-05-14T07:16:10.962Z,100777.47
2023-05-14T07:18:37.623Z,100803.84
2023-05-14T07:21:07.559Z,100820.41
2023-05-14T07:23:36.343Z,100836.56
2023-05-14T07:26:03.421Z,100865.44
2023-05-14T07:28:30.166Z,100886.28
2023-05-14T07:30:56.946Z,100900.03
2023-05-14T07:33:24.398Z,100915.97
2023-05-14T07:35:51.353Z,100939.31
2023-05-14T07:38:19.955Z,100969.78
2023-05-14T07:40:46.520Z,100995.19
2023-05-14T07:43:13.227Z,101027.31
2023-05-14T07:45:40.099Z,101050.03
2023-05-14T07:48:06.835Z,101086.91
2023-05-14T07:50:33.600Z,101123.59
2023-05-14T07:53:00.118Z,101163.72
2023-05-14T07:55:26.829Z,101189.34
2023-05-14T07:57:53.355Z,101208.63
2023-05-14T08:00:20.277Z,101232.59
2023-05-14T08:02:46.914Z,101214.22
2023-05-14T08:05:13.973Z,101237.19
2023-05-14T08:07:41.448Z,101280.28
2023-05-14T08:10:08.619Z,101320.56
2023-05-14T08:12:35.336Z,101358.44
2023-05-14T08:15:02.496Z,101376.31
2023-05-14T08:17:29.186Z,101418.34
2023-05-14T08:19:55.704Z,101442.88
2023-05-14T08:22:22.420Z,101474.91
2023-05-14T08:24:49.006Z,101513.16
2023-05-14T08:27:16.669Z,101542.75
2023-05-14T08:29:43.254Z,101559.16
2023-05-14T08:32:22.205Z,101590.19
2023-05-14T08:34:50.793Z,101612.81
2023-05-14T08:37:17.340Z,101655.31
2023-05-14T08:39:43.849Z,101731.53
2023-05-14T08:42:13.046Z,101756.94
2023-05-14T08:44:48.328Z,101797.19
2023-05-14T08:47:16.138Z,101821.34
2023-05-14T08:49:45.367Z,101835.03
2023-05-14T08:52:13.074Z,101846.34
2023-05-14T08:54:40.887Z,101861.16
2023-05-14T08:57:10.375Z,101864.88
2023-05-14T08:59:37.547Z,101879.69
2023-05-14T09:02:06.376Z,101880.94
2023-05-14T09:04:34.559Z,101885.84
2023-05-14T09:07:02.619Z,101896.53
2023-05-14T09:09:29.654Z,101923.47
2023-05-14T09:11:56.183Z,101941.03
2023-05-14T09:14:25.638Z,101938.63
2023-05-14T09:16:52.542Z,101958.06
2023-05-14T09:19:20.805Z,101983.50
2023-05-14T09:21:49.086Z,102004.88
2023-05-14T09:24:22.714Z,102039.47
2023-05-14T09:26:57.166Z,102043.84
2023-05-14T09:29:29.050Z,102059.22
2023-05-14T09:31:57.204Z,102072.91
2023-05-14T09:34:35.145Z,102079.38
2023-05-14T09:37:07.604Z,102085.44
2023-05-14T09:39:38.842Z,102098.88
2023-05-14T09:42:05.975Z,102101.34
2023-05-14T09:44:32.748Z,102112.00
2023-05-14T09:46:59.351Z,102098.22
2023-05-14T09:49:26.065Z,102106.69
2023-05-14T09:51:52.826Z,102105.22
2023-05-14T09:54:19.517Z,102094.28
2023-05-14T09:56:46.218Z,102093.44
2023-05-14T09:59:13.092Z,102104.22
2023-05-14T10:01:42.925Z,102094.09
2023-05-14T10:04:11.227Z,102106.25
2023-05-14T10:06:39.557Z,102106.44
2023-05-14T10:09:12.715Z,102105.31
2023-05-14T10:11:43.896Z,102107.19
2023-05-14T10:14:33.621Z,102107.22
2023-05-14T10:17:01.714Z,102099.84
2023-05-14T10:19:33.212Z,102099.69
2023-05-14T10:22:05.167Z,102103.66
2023-05-14T10:24:32.676Z,102098.31
2023-05-14T10:26:59.352Z,102095.06
2023-05-14T10:29:34.653Z,102103.69
2023-05-14T10:32:06.178Z,102099.88
2023-05-14T10:34:38.497Z,102098.19
2023-05-14T10:37:09.306Z,102087.34
2023-05-14T10:39:50.917Z,102097.03
2023-05-14T10:42:20.429Z,102095.22
2023-05-14T10:45:05.953Z,102091.78
2023-05-14T10:47:33.230Z,102090.16
2023-05-14T10:50:03.482Z,102094.22
2023-05-14T10:52:31.031Z,102095.16
2023-05-14T10:55:07.766Z,102094.66
2023-05-14T10:57:37.829Z,102090.22
2023-05-14T11:00:09.986Z,102086.94
2023-05-14T11:02:41.461Z,102076.81
2023-05-14T11:05:11.745Z,102078.56
2023-05-14T11:07:42.108Z,102087.25
2023-05-14T11:10:11.234Z,102076.13
2023-05-14T11:12:40.669Z,102084.81
2023-05-14T11:15:09.589Z,102073.81
2023-05-14T11:17:37.725Z,102082.13
2023-05-14T11:20:08.202Z,102069.97
2023-05-14T11:22:36.610Z,102072.88
2023-05-14T11:25:03.669Z,102070.94
2023-05-14T11:27:31.220Z,102064.94
2023-05-14T11:29:58.172Z,102067.50
2023-05-14T11:32:25.845Z,102071.66
2023-05-14T11:34:52.607Z,102059.06
2023-05-14T11:37:20.393Z,102066.63
2023-05-14T11:39:49.332Z,102059.22
2023-05-14T11:42:18.630Z,102058.41
2023-05-14T11:44:54.099Z,102054.94
2023-05-14T11:47:22.221Z,102047.41
2023-05-14T11:49:49.650Z,102044.19
2023-05-14T11:52:19.550Z,102040.03
2023-05-14T11:54:46.532Z,102040.97
2023-05-14T11:57:16.443Z,102037.53
2023-05-14T11:59:43.717Z,102032.91
2023-05-14T12:02:12.813Z,102042.63
2023-05-14T12:04:40.218Z,102044.06
2023-05-14T12:07:11.968Z,102038.97
2023-05-14T12:09:48.958Z,102044.38
2023-05-14T12:12:18.725Z,102035.00
2023-05-14T12:14:45.712Z,102025.47
2023-05-14T12:17:16.518Z,102025.16
2023-05-14T12:19:44.243Z,102017.88
2023-05-14T12:22:12.096Z,102028.13
2023-05-14T12:24:39.263Z,102021.34
2023-05-14T12:27:07.269Z,102020.63
2023-05-14T12:29:39.674Z,102025.09
2023-05-14T12:32:11.109Z,102021.03
2023-05-14T12:34:38.246Z,102017.94
2023-05-14T12:37:06.315Z,102016.53
2023-05-14T12:39:34.206Z,102014.78
2023-05-14T12:42:01.322Z,102017.63
2023-05-14T12:44:28.536Z,102011.13
2023-05-14T12:46:55.480Z,102015.25
2023-05-14T12:49:22.065Z,102009.97
2023-05-14T12:51:50.057Z,102008.09
2023-05-14T12:54:17.728Z,102011.53
2023-05-14T12:56:44.384Z,102008.09
2023-05-14T12:59:11.135Z,102007.47
2023-05-14T13:01:38.397Z,102007.13
2023-05-14T13:04:05.824Z,101998.00
2023-05-14T13:06:32.771Z,101994.31
2023-05-14T13:09:01.734Z,101997.09
2023-05-14T13:11:30.450Z,101991.00
2023-05-14T13:13:57.072Z,102003.78
2023-05-14T13:16:23.731Z,102002.03
2023-05-14T13:18:50.480Z,102000.88
2023-05-14T13:21:17.276Z,101995.72
2023-05-14T13:23:43.816Z,102000.28
2023-05-14T13:26:17.022Z,101993.69
2023-05-14T13:28:43.570Z,102004.47
2023-05-14T13:31:12.661Z,101998.75
2023-05-14T13:33:42.456Z,102000.22
2023-05-14T13:36:10.564Z,102010.41
2023-05-14T13:38:37.982Z,102007.38
2023-05-14T13:41:07.644Z,102003.38
2023-05-14T13:43:35.889Z,101990.06
2023-05-14T13:46:04.321Z,101991.91
2023-05-14T13:48:33.833Z,101994.91
2023-05-14T13:51:00.732Z,101989.81
2023-05-14T13:53:27.406Z,101993.00
2023-05-14T13:55:56.669Z,101997.72
2023-05-14T13:58:25.596Z,101996.34
2023-05-14T14:00:53.237Z,101993.78
2023-05-14T14:03:20.174Z,101988.88
2023-05-14T14:05:46.900Z,101994.69
2023-05-14T14:10:48.615Z,101979.06
2023-05-14T14:13:15.267Z,101980.53
2023-05-14T14:15:42.625Z,101978.84
2023-05-14T14:18:10.172Z,101970.69
2023-05-14T14:20:37.074Z,101976.00
2023-05-14T14:23:03.656Z,101967.31
2023-05-14T14:25:30.656Z,101976.00
2023-05-14T14:27:57.448Z,101979.81
2023-05-14T14:30:24.015Z,101970.94
2023-05-14T14:32:50.981Z,101967.00
2023-05-14T14:35:19.782Z,101964.03
2023-05-14T14:37:52.382Z,101964.19
2023-05-14T14:40:19.022Z,101965.41
2023-05-14T14:42:46.683Z,101967.50
2023-05-14T14:45:15.195Z,101957.72
2023-05-14T14:47:46.873Z,101962.44
2023-05-14T14:50:13.672Z,101955.66
2023-05-14T14:52:46.202Z,101955.25
2023-05-14T14:55:13.119Z,101960.13
2023-05-14T14:57:39.927Z,101957.69
2023-05-14T15:00:07.490Z,101957.44
2023-05-14T15:02:34.857Z,101955.91
2023-05-14T15:05:01.577Z,101938.53
2023-05-14T15:07:29.622Z,101953.19
2023-05-14T15:09:56.152Z,101941.44
2023-05-14T15:12:22.644Z,101947.81
2023-05-14T15:14:49.136Z,101946.97
2023-05-14T15:17:15.756Z,101942.91
2023-05-14T15:19:42.448Z,101934.66
2023-05-14T15:22:09.055Z,101923.56
2023-05-14T15:24:35.834Z,101932.22
2023-05-14T15:27:02.490Z,101940.66
2023-05-14T15:29:29.085Z,101935.09
2023-05-14T15:31:55.845Z,101932.66
2023-05-14T15:34:22.373Z,101935.50
2023-05-14T15:36:48.915Z,101933.84
2023-05-14T15:39:15.495Z,101916.31
2023-05-14T15:41:42.132Z,101931.34
2023-05-14T15:44:08.765Z,101925.16
2023-05-14T15:46:35.773Z,101924.94
2023-05-14T15:49:02.397Z,101926.91
2023-05-14T15:51:29.074Z,101929.69
2023-05-14T15:53:55.670Z,101923.13
2023-05-14T15:56:22.952Z,101935.84
2023-05-14T15:58:49.860Z,101932.94
2023-05-14T16:01:16.665Z,101934.38
2023-05-14T16:03:45.486Z,101920.84
2023-05-14T16:06:12.420Z,101915.63
2023-05-14T16:08:38.911Z,101908.22
2023-05-14T16:11:06.431Z,101903.13
2023-05-14T16:13:33.500Z,101908.72
2023-05-14T16:16:00.238Z,101906.91
2023-05-14T16:18:26.882Z,101902.34
2023-05-14T16:20:53.634Z,101906.00
2023-05-14T16:23:20.243Z,101910.16
2023-05-14T16:25:46.848Z,101907.47
2023-05-14T16:28:13.631Z,101909.09
2023-05-14T16:30:40.240Z,101905.16
2023-05-14T16:33:06.868Z,101904.81
2023-05-14T16:35:33.568Z,101897.78
2023-05-14T16:38:00.149Z,101897.00
2023-05-14T16:40:26.801Z,101903.78
2023-05-14T16:42:53.379Z,101894.56
2023-05-14T16:45:19.841Z,101885.63
2023-05-14T16:47:46.385Z,101876.09
2023-05-14T16:50:13.188Z,101882.00
2023-05-14T16:52:39.771Z,101877.19
2023-05-14T16:55:06.639Z,101876.06
2023-05-14T16:57:34.317Z,101873.72
2023-05-14T17:00:01.230Z,101875.31
2023-05-14T17:02:27.845Z,101873.34
2023-05-14T17:04:55.379Z,101867.78
2023-05-14T17:07:22.188Z,101866.88
2023-05-14T17:09:48.755Z,101860.84
2023-05-14T17:12:15.456Z,101864.66
2023-05-14T17:14:42.046Z,101863.28
2023-05-14T17:17:08.728Z,101879.38
2023-05-14T17:19:35.351Z,101864.50
2023-05-14T17:22:01.913Z,101858.13
2023-05-14T17:24:28.569Z,101860.00
2023-05-14T17:26:55.080Z,101859.47
2023-05-14T17:29:21.650Z,101861.28
2023-05-14T17:31:48.726Z,101854.94
2023-05-14T17:34:15.530Z,101855.63
2023-05-14T17:36:42.086Z,101850.09
2023-05-14T17:39:09.137Z,101850.09
2023-05-14T17:41:35.653Z,101850.47
2023-05-14T17:44:02.222Z,101847.94
2023-05-14T17:46:28.833Z,101838.38
2023-05-14T17:48:55.403Z,101831.81
2023-05-14T17:51:22.012Z,101822.06
2023-05-14T17:53:48.621Z,101825.88
2023-05-14T17:56:17.571Z,101834.22
2023-05-14T17:58:45.398Z,101834.94
2023-05-14T18:01:12.122Z,101821.09
2023-05-14T18:03:38.799Z,101831.38
2023-05-14T18:06:05.825Z,101820.47
2023-05-14T18:08:32.297Z,101818.16
2023-05-14T18:11:01.014Z,101823.91
2023-05-14T18:13:27.645Z,101818.84
2023-05-14T18:15:56.459Z,101818.34
2023-05-14T18:18:23.988Z,101818.47
2023-05-14T18:20:52.099Z,101806.63
2023-05-14T18:23:18.796Z,101797.78
2023-05-14T18:25:46.035Z,101808.09
2023-05-14T18:28:13.088Z,101789.78
2023-05-14T18:30:39.922Z,101781.22
2023-05-14T18:33:06.775Z,101763.03
2023-05-14T18:35:33.462Z,101771.00
2023-05-14T18:38:00.173Z,101768.56
2023-05-14T18:40:26.714Z,101753.47
2023-05-14T18:42:53.432Z,101748.03
2023-05-14T18:45:20.294Z,101744.41
2023-05-14T18:47:47.934Z,101735.34
2023-05-14T18:50:14.572Z,101728.72
2023-05-14T18:52:41.186Z,101721.13
2023-05-14T18:55:08.435Z,101719.84
2023-05-14T18:57:37.070Z,101709.09
2023-05-14T19:00:05.145Z,101702.97
2023-05-14T19:02:31.784Z,101693.41
2023-05-14T19:04:59.057Z,101695.22
2023-05-14T19:07:27.213Z,101683.66
2023-05-14T19:09:53.746Z,101662.44
2023-05-14T19:12:20.251Z,101653.03
2023-05-14T19:14:46.730Z,101633.31
2023-05-14T19:17:13.273Z,101636.84
2023-05-14T19:19:39.804Z,101629.56
2023-05-14T19:22:06.760Z,101630.59
2023-05-14T19:24:33.400Z,101625.16
2023-05-14T19:27:00.011Z,101611.66
2023-05-14T19:29:26.567Z,101600.88
2023-05-14T19:31:53.153Z,101599.75
2023-05-14T19:34:19.782Z,101586.72
2023-05-14T19:36:46.415Z,101574.81
2023-05-14T19:39:12.962Z,101566.03
2023-05-14T19:41:39.479Z,101559.94
2023-05-14T19:44:05.981Z,101553.81
2023-05-14T19:46:32.651Z,101550.19
2023-05-14T19:48:59.208Z,101546.75
2023-05-14T19:51:25.729Z,101543.13
2023-05-14T19:53:52.303Z,101551.53
2023-05-14T19:56:21.808Z,101545.09
2023-05-14T19:58:48.541Z,101541.63
2023-05-14T20:01:15.236Z,101532.84
2023-05-14T20:03:41.891Z,101527.91
2023-05-14T20:06:08.566Z,101524.75
2023-05-14T20:08:35.112Z,101515.53
2023-05-14T20:11:01.934Z,101513.84
2023-05-14T20:13:31.771Z,101493.88
2023-05-14T20:15:58.759Z,101486.09
2023-05-14T20:18:25.509Z,101477.16
2023-05-14T20:20:52.036Z,101462.66
2023-05-14T20:23:18.665Z,101457.84
2023-05-14T20:25:45.201Z,101450.91
2023-05-14T20:28:11.931Z,101445.81
2023-05-14T20:30:38.479Z,101434.56
2023-05-14T20:33:05.040Z,101434.72
2023-05-14T20:35:31.535Z,101426.47
2023-05-14T20:37:58.616Z,101422.50
2023-05-14T20:40:25.414Z,101422.53
2023-05-14T20:42:52.251Z,101424.81
2023-05-14T20:45:19.074Z,101409.47
2023-05-14T20:47:45.628Z,101409.66
2023-05-14T20:50:13.713Z,101398.56
2023-05-14T20:52:40.506Z,101387.16
2023-05-14T20:55:08.172Z,101386.53
2023-05-14T20:57:34.710Z,101379.91
2023-05-14T21:00:02.424Z,101368.50
2023-05-14T21:02:29.143Z,101361.75
2023-05-14T21:04:55.872Z,101357.13
2023-05-14T21:07:22.421Z,101357.94
2023-05-14T21:09:52.341Z,101354.50
2023-05-14T21:12:19.618Z,101345.75
2023-05-14T21:14:46.401Z,101339.09
2023-05-14T21:17:12.916Z,101316.47
2023-05-14T21:19:39.625Z,101306.91
2023-05-14T21:22:06.801Z,101298.97
2023-05-14T21:24:33.270Z,101291.03
2023-05-14T21:26:59.940Z,101277.66
2023-05-14T21:29:26.587Z,101268.09
2023-05-14T21:31:53.120Z,101257.34
2023-05-14T21:34:19.843Z,101245.94
2023-05-14T21:36:47.011Z,101236.56
2023-05-14T21:39:13.889Z,101226.47
2023-05-14T21:41:40.504Z,101222.38
2023-05-14T21:44:07.001Z,101221.69
2023-05-14T21:46:33.824Z,101205.38
2023-05-14T21:49:00.563Z,101204.53
2023-05-14T21:51:27.310Z,101187.88
2023-05-14T21:53:53.829Z,101183.75
2023-05-14T21:56:21.083Z,101182.78
2023-05-14T21:58:47.593Z,101165.63
2023-05-14T22:01:14.238Z,101158.69
2023-05-14T22:03:40.773Z,101151.09
2023-05-14T22:06:07.453Z,101144.50
2023-05-14T22:08:34.180Z,101139.88
2023-05-14T22:11:00.743Z,101127.03
2023-05-14T22:13:27.252Z,101122.44
2023-05-14T22:16:01.396Z,101124.59
2023-05-14T22:18:36.617Z,101102.31
2023-05-14T22:21:03.728Z,101083.84
2023-05-14T22:23:30.249Z,101085.19
2023-05-14T22:25:57.425Z,101067.69
2023-05-14T22:28:23.989Z,101069.69
2023-05-14T22:30:50.477Z,101072.47
2023-05-14T22:33:16.970Z,101065.91
2023-05-14T22:35:43.584Z,101049.56
2023-05-14T22:38:10.076Z,101051.84
2023-05-14T22:40:36.576Z,101027.59
2023-05-14T22:43:03.113Z,101013.22
2023-05-14T22:45:30.610Z,101008.59
2023-05-14T22:47:57.097Z,100992.50
2023-05-14T22:50:23.684Z,100982.78
2023-05-14T22:52:50.173Z,100963.59
2023-05-14T22:55:16.693Z,100947.22
2023-05-14T22:57:43.400Z,100943.59
2023-05-14T23:00:11.141Z,100932.28
2023-05-14T23:02:37.697Z,100918.72
2023-05-14T23:05:04.523Z,100921.03
2023-05-14T23:07:31.220Z,100909.09
2023-05-14T23:09:57.744Z,100901.00
2023-05-14T23:12:24.250Z,100901.00
2023-05-14T23:14:50.806Z,100896.34
2023-05-14T23:17:17.979Z,100884.63
2023-05-14T23:19:44.576Z,100878.69
2023-05-14T23:22:11.132Z,100873.59
2023-05-14T23:24:37.583Z,100873.97
2023-05-14T23:27:04.119Z,100871.66
2023-05-14T23:29:30.698Z,100874.84
2023-05-14T23:31:57.191Z,100873.72
2023-05-14T23:34:23.736Z,100874.25
2023-05-14T23:36:50.734Z,100872.69
2023-05-14T23:39:17.425Z,100863.47
2023-05-14T23:41:43.966Z,100860.38
2023-05-14T23:44:10.445Z,100853.97
2023-05-14T23:46:37.149Z,100841.00
2023-05-14T23:49:03.908Z,100837.88
2023-05-14T23:51:30.516Z,100827.09
2023-05-14T23:53:58.658Z,100831.09
2023-05-14T23:56:26.213Z,100829.84
2023-05-14T23:58:52.926Z,100819.16
